createdAt,value
2019-03-17T00:02:02.018Z,1.77
2019-03-17T00:04:31.789Z,1.87
2019-03-17T00:07:08.444Z,2.37
2019-03-17T00:09:34.641Z,2.10
2019-03-17T00:12:00.796Z,1.90
2019-03-17T00:14:27.072Z,1.73
2019-03-17T00:16:53.250Z,2.03
2019-03-17T00:19:19.410Z,1.80
2019-03-17T00:21:45.588Z,2.10
2019-03-17T00:24:11.752Z,2.00
2019-03-17T00:26:37.913Z,2.20
2019-03-17T00:29:04.103Z,2.00
2019-03-17T00:31:30.257Z,1.87
2019-03-17T00:33:56.445Z,2.10
2019-03-17T00:36:25.137Z,1.90
2019-03-17T00:38:52.120Z,2.10
2019-03-17T00:41:20.854Z,2.10
2019-03-17T00:43:47.105Z,1.50
2019-03-17T00:46:13.276Z,1.73
2019-03-17T00:48:39.492Z,1.97
2019-03-17T00:51:05.649Z,2.30
2019-03-17T00:53:31.825Z,1.93
2019-03-17T00:55:57.972Z,1.90
2019-03-17T00:58:24.172Z,2.10
2019-03-17T01:00:50.358Z,1.70
2019-03-17T01:03:16.576Z,1.53
2019-03-17T01:05:42.834Z,1.83
2019-03-17T01:08:09.004Z,1.73
2019-03-17T01:10:35.286Z,1.37
2019-03-17T01:13:01.474Z,1.67
2019-03-17T01:15:27.662Z,2.13
2019-03-17T01:17:53.830Z,1.90
2019-03-17T01:20:20.000Z,2.13
2019-03-17T01:22:48.827Z,1.83
2019-03-17T01:25:15.028Z,1.93
2019-03-17T01:27:41.168Z,1.60
2019-03-17T01:30:11.004Z,2.17
2019-03-17T01:32:37.294Z,1.67
2019-03-17T01:35:09.550Z,1.80
2019-03-17T01:37:33.801Z,1.97
2019-03-17T01:40:00.041Z,1.53
2019-03-17T01:42:26.192Z,1.73
2019-03-17T01:44:52.412Z,1.73
2019-03-17T01:47:18.633Z,1.93
2019-03-17T01:49:44.883Z,1.33
2019-03-17T01:52:11.065Z,1.70
2019-03-17T01:54:37.240Z,1.93
2019-03-17T01:57:03.433Z,1.77
2019-03-17T01:59:29.610Z,1.53
2019-03-17T02:01:55.767Z,1.37
2019-03-17T02:04:21.928Z,1.63
2019-03-17T02:06:48.096Z,1.30
2019-03-17T02:09:17.106Z,1.30
2019-03-17T02:11:45.959Z,1.80
2019-03-17T02:14:12.127Z,1.20
2019-03-17T02:16:38.328Z,1.37
2019-03-17T02:19:04.556Z,1.20
2019-03-17T02:21:30.760Z,1.50
2019-03-17T02:23:56.955Z,1.57
2019-03-17T02:26:23.111Z,1.07
2019-03-17T02:28:49.308Z,1.43
2019-03-17T02:31:15.500Z,1.53
2019-03-17T02:33:41.657Z,1.10
2019-03-17T02:36:07.857Z,1.10
2019-03-17T02:38:34.023Z,1.23
2019-03-17T02:41:00.218Z,1.30
2019-03-17T02:43:28.941Z,1.57
2019-03-17T02:45:55.135Z,1.33
2019-03-17T02:48:21.302Z,0.83
2019-03-17T02:50:47.535Z,1.10
2019-03-17T02:53:13.754Z,1.60
2019-03-17T02:55:39.951Z,1.20
2019-03-17T02:58:06.127Z,1.33
2019-03-17T03:00:32.295Z,0.97
2019-03-17T03:02:58.486Z,1.17
2019-03-17T03:05:24.665Z,0.93
2019-03-17T03:07:50.829Z,1.10
2019-03-17T03:10:23.269Z,1.17
2019-03-17T03:12:49.461Z,1.07
2019-03-17T03:15:15.658Z,1.63
2019-03-17T03:17:41.812Z,0.90
2019-03-17T03:20:08.342Z,1.17
2019-03-17T03:22:34.515Z,0.90
2019-03-17T03:25:00.719Z,1.63
2019-03-17T03:27:26.988Z,0.80
2019-03-17T03:29:53.166Z,1.03
2019-03-17T03:32:19.355Z,1.20
2019-03-17T03:34:45.530Z,1.20
2019-03-17T03:37:26.893Z,1.00
2019-03-17T03:39:53.177Z,1.50
2019-03-17T03:42:19.846Z,0.90
2019-03-17T03:44:48.657Z,1.07
2019-03-17T03:47:14.822Z,1.10
2019-03-17T03:49:41.016Z,0.77
2019-03-17T03:52:07.261Z,0.87
2019-03-17T03:54:33.441Z,1.50
2019-03-17T03:56:59.879Z,0.97
2019-03-17T03:59:26.254Z,1.10
2019-03-17T04:01:52.453Z,0.80
2019-03-17T04:04:18.706Z,1.30
2019-03-17T04:06:44.973Z,0.80
2019-03-17T04:09:11.214Z,0.73
2019-03-17T04:11:37.394Z,0.80
2019-03-17T04:14:03.596Z,1.17
2019-03-17T04:16:32.423Z,1.50
2019-03-17T04:18:58.581Z,1.10
2019-03-17T04:21:24.759Z,1.20
2019-03-17T04:23:50.934Z,0.80
2019-03-17T04:26:17.252Z,1.33
2019-03-17T04:28:43.408Z,1.00
2019-03-17T04:31:09.576Z,0.90
2019-03-17T04:33:35.768Z,1.97
2019-03-17T04:36:01.961Z,0.77
2019-03-17T04:38:28.151Z,1.00
2019-03-17T04:40:54.325Z,1.13
2019-03-17T04:43:20.480Z,1.00
2019-03-17T04:45:49.524Z,2.07
2019-03-17T04:48:15.848Z,0.83
2019-03-17T04:50:42.048Z,0.90
2019-03-17T04:53:08.237Z,0.93
2019-03-17T04:55:34.404Z,0.97
2019-03-17T04:58:00.622Z,1.17
2019-03-17T05:00:26.826Z,1.03
2019-03-17T05:02:52.986Z,1.17
2019-03-17T05:05:19.154Z,0.90
2019-03-17T05:07:45.358Z,0.90
2019-03-17T05:10:11.552Z,0.83
2019-03-17T05:12:37.749Z,1.90
2019-03-17T05:15:10.096Z,1.17
2019-03-17T05:17:36.326Z,0.97
2019-03-17T05:20:03.731Z,1.57
2019-03-17T05:22:29.931Z,2.00
2019-03-17T05:24:59.089Z,0.87
2019-03-17T05:27:25.261Z,0.90
2019-03-17T05:29:51.484Z,0.83
2019-03-17T05:32:17.666Z,0.77
2019-03-17T05:34:43.836Z,0.93
2019-03-17T05:37:10.032Z,1.00
2019-03-17T05:39:36.222Z,1.93
2019-03-17T05:42:02.433Z,1.03
2019-03-17T05:44:28.601Z,0.60
2019-03-17T05:46:54.825Z,0.87
2019-03-17T05:49:21.022Z,0.57
2019-03-17T05:51:47.204Z,0.40
2019-03-17T05:54:13.385Z,0.70
2019-03-17T05:56:39.587Z,0.50
2019-03-17T05:59:05.892Z,0.30
2019-03-17T06:01:32.201Z,0.70
2019-03-17T06:04:07.671Z,0.67
2019-03-17T06:06:33.962Z,0.60
2019-03-17T06:09:15.290Z,0.50
2019-03-17T06:11:41.522Z,0.40
2019-03-17T06:14:07.835Z,0.40
2019-03-17T06:16:52.505Z,0.60
2019-03-17T06:19:18.685Z,0.50
2019-03-17T06:21:44.890Z,0.40
2019-03-17T06:24:26.307Z,0.50
2019-03-17T06:26:52.542Z,0.40
2019-03-17T06:29:18.773Z,0.33
2019-03-17T06:31:44.958Z,0.57
2019-03-17T06:34:11.104Z,0.40
2019-03-17T06:36:37.271Z,0.40
2019-03-17T06:39:15.660Z,0.40
2019-03-17T06:41:41.833Z,0.47
2019-03-17T06:44:08.126Z,0.40
2019-03-17T06:46:34.316Z,0.70
2019-03-17T06:49:00.518Z,0.40
2019-03-17T06:51:26.710Z,0.40
2019-03-17T06:53:56.610Z,1.07
2019-03-17T06:56:24.083Z,0.47
2019-03-17T06:58:50.248Z,0.30
2019-03-17T07:01:22.475Z,0.53
2019-03-17T07:03:51.212Z,0.40
2019-03-17T07:06:17.398Z,0.30
2019-03-17T07:08:46.392Z,0.40
2019-03-17T07:11:12.570Z,0.60
2019-03-17T07:13:38.824Z,0.40
2019-03-17T07:16:05.001Z,0.40
2019-03-17T07:18:31.197Z,0.57
2019-03-17T07:20:57.489Z,0.50
2019-03-17T07:23:23.825Z,0.50
2019-03-17T07:25:50.048Z,0.43
2019-03-17T07:28:16.212Z,0.70
2019-03-17T07:30:42.387Z,0.40
2019-03-17T07:33:08.586Z,0.57
2019-03-17T07:35:34.795Z,0.47
2019-03-17T07:38:00.996Z,0.40
2019-03-17T07:40:27.276Z,0.57
2019-03-17T07:42:56.235Z,0.40
2019-03-17T07:45:22.421Z,0.73
2019-03-17T07:47:48.570Z,0.40
2019-03-17T07:50:14.737Z,0.40
2019-03-17T07:52:40.937Z,0.50
2019-03-17T07:55:08.286Z,0.40
2019-03-17T07:57:34.565Z,0.50
2019-03-17T08:00:00.721Z,0.60
2019-03-17T08:02:26.910Z,0.60
2019-03-17T08:04:53.092Z,0.40
2019-03-17T08:07:19.510Z,0.87
2019-03-17T08:09:48.352Z,0.40
2019-03-17T08:12:14.521Z,0.70
2019-03-17T08:14:40.684Z,1.00
2019-03-17T08:17:06.872Z,0.50
2019-03-17T08:19:33.124Z,0.50
2019-03-17T08:21:59.413Z,0.50
2019-03-17T08:24:25.618Z,0.40
2019-03-17T08:26:51.791Z,0.60
2019-03-17T08:29:17.956Z,0.40
2019-03-17T08:31:44.192Z,0.70
2019-03-17T08:34:10.335Z,0.70
2019-03-17T08:36:54.927Z,0.70
2019-03-17T08:39:21.125Z,1.37
2019-03-17T08:41:47.460Z,0.97
2019-03-17T08:44:13.647Z,0.80
2019-03-17T08:46:39.919Z,0.60
2019-03-17T08:49:06.110Z,1.03
2019-03-17T08:51:32.326Z,0.70
2019-03-17T08:54:07.868Z,1.00
2019-03-17T08:56:34.029Z,0.80
2019-03-17T08:59:00.238Z,0.70
2019-03-17T09:01:26.483Z,0.77
2019-03-17T09:03:52.672Z,0.57
2019-03-17T09:06:18.848Z,0.40
2019-03-17T09:08:45.037Z,0.70
2019-03-17T09:11:11.210Z,0.50
2019-03-17T09:13:37.410Z,0.57
2019-03-17T09:16:03.790Z,0.60
2019-03-17T09:18:30.071Z,0.60
2019-03-17T09:21:11.521Z,0.73
2019-03-17T09:23:37.688Z,0.63
2019-03-17T09:26:03.895Z,0.50
2019-03-17T09:28:30.098Z,0.70
2019-03-17T09:30:56.271Z,0.67
2019-03-17T09:33:22.507Z,0.80
2019-03-17T09:35:51.473Z,0.80
2019-03-17T09:38:17.664Z,0.70
2019-03-17T09:40:43.863Z,0.80
2019-03-17T09:43:10.104Z,1.63
2019-03-17T09:45:36.327Z,0.70
2019-03-17T09:48:02.529Z,0.83
2019-03-17T09:50:28.909Z,0.67
2019-03-17T09:52:58.131Z,0.60
2019-03-17T09:55:44.354Z,0.40
2019-03-17T09:58:13.144Z,0.87
2019-03-17T10:00:39.360Z,0.97
2019-03-17T10:03:05.637Z,0.60
2019-03-17T10:05:31.977Z,0.77
2019-03-17T10:08:16.591Z,0.40
2019-03-17T10:10:42.816Z,0.77
2019-03-17T10:13:09.104Z,0.40
2019-03-17T10:15:35.373Z,0.63
2019-03-17T10:18:01.694Z,0.53
2019-03-17T10:20:28.037Z,0.60
2019-03-17T10:22:54.324Z,0.60
2019-03-17T10:25:20.521Z,0.80
2019-03-17T10:27:46.914Z,0.40
2019-03-17T10:30:17.092Z,0.40
2019-03-17T10:32:46.138Z,0.60
2019-03-17T10:35:12.406Z,0.68
2019-03-17T10:37:41.139Z,0.50
2019-03-17T10:40:13.569Z,0.50
2019-03-17T10:42:39.864Z,0.50
2019-03-17T10:45:07.833Z,0.72
2019-03-17T10:47:34.046Z,0.60
2019-03-17T10:50:00.431Z,0.57
2019-03-17T10:52:26.620Z,0.62
2019-03-17T10:54:52.818Z,0.68
2019-03-17T10:57:19.189Z,0.57
2019-03-17T11:00:07.660Z,0.60
2019-03-17T11:02:52.154Z,0.60
2019-03-17T11:05:21.039Z,0.70
2019-03-17T11:07:47.225Z,0.60
2019-03-17T11:10:14.596Z,0.80
2019-03-17T11:12:43.582Z,0.50
2019-03-17T11:15:16.607Z,0.70
2019-03-17T11:17:42.830Z,0.70
2019-03-17T11:20:10.330Z,0.80
2019-03-17T11:22:36.616Z,0.60
2019-03-17T11:25:05.531Z,1.10
2019-03-17T11:27:31.758Z,1.63
2019-03-17T11:29:57.930Z,1.13
2019-03-17T11:32:24.222Z,0.63
2019-03-17T11:34:50.456Z,0.70
2019-03-17T11:37:16.676Z,0.60
2019-03-17T11:39:42.880Z,0.73
2019-03-17T11:42:09.130Z,0.60
2019-03-17T11:44:36.108Z,0.50
2019-03-17T11:47:02.766Z,0.50
2019-03-17T11:49:31.613Z,0.50
2019-03-17T11:51:57.824Z,0.77
2019-03-17T11:54:24.016Z,0.80
2019-03-17T11:56:50.202Z,0.43
2019-03-17T11:59:16.487Z,0.50
2019-03-17T12:01:42.894Z,0.60
2019-03-17T12:04:09.100Z,0.77
2019-03-17T12:06:35.434Z,0.83
2019-03-17T12:09:05.524Z,0.50
2019-03-17T12:11:31.708Z,0.70
2019-03-17T12:13:57.984Z,0.60
2019-03-17T12:16:24.327Z,0.60
2019-03-17T12:18:50.663Z,0.40
2019-03-17T12:21:19.626Z,0.60
2019-03-17T12:23:45.857Z,0.40
2019-03-17T12:26:12.316Z,0.50
2019-03-17T12:28:38.559Z,0.87
2019-03-17T12:31:07.565Z,0.80
2019-03-17T12:33:33.765Z,0.67
2019-03-17T12:35:59.952Z,1.13
2019-03-17T12:38:29.181Z,0.90
2019-03-17T12:41:10.766Z,0.70
2019-03-17T12:43:37.024Z,0.60
2019-03-17T12:46:03.370Z,0.90
2019-03-17T12:48:32.244Z,0.80
2019-03-17T12:51:16.681Z,1.23
2019-03-17T12:53:42.895Z,1.27
2019-03-17T12:56:10.384Z,1.20
2019-03-17T12:58:55.821Z,0.77
2019-03-17T13:01:40.923Z,0.53
2019-03-17T13:04:07.116Z,0.70
2019-03-17T13:06:33.311Z,1.00
2019-03-17T13:09:01.049Z,0.40
2019-03-17T13:11:27.479Z,0.60
2019-03-17T13:13:53.664Z,0.50
2019-03-17T13:16:19.862Z,1.00
2019-03-17T13:18:46.327Z,0.67
2019-03-17T13:21:12.571Z,1.10
2019-03-17T13:23:41.296Z,3.17
2019-03-17T13:26:10.204Z,0.90
2019-03-17T13:28:35.684Z,1.00
2019-03-17T13:31:02.003Z,0.70
2019-03-17T13:33:28.350Z,0.90
2019-03-17T13:35:54.574Z,0.60
2019-03-17T13:38:39.646Z,1.17
2019-03-17T13:41:05.987Z,0.63
2019-03-17T13:43:32.457Z,0.60
2019-03-17T13:45:58.674Z,0.67
2019-03-17T13:48:24.863Z,0.70
2019-03-17T13:50:51.067Z,2.47
2019-03-17T13:53:17.253Z,1.80
2019-03-17T13:55:43.562Z,1.83
2019-03-17T13:58:10.301Z,2.10
2019-03-17T14:00:51.887Z,1.97
2019-03-17T14:03:18.163Z,2.72
2019-03-17T14:05:44.538Z,1.37
2019-03-17T14:08:13.375Z,0.50
2019-03-17T14:10:41.361Z,0.50
2019-03-17T14:13:19.762Z,1.87
2019-03-17T14:15:46.132Z,1.72
2019-03-17T14:18:12.354Z,1.30
2019-03-17T14:20:38.575Z,0.60
2019-03-17T14:23:04.772Z,0.50
2019-03-17T14:25:32.869Z,1.32
2019-03-17T14:27:59.074Z,1.95
2019-03-17T14:30:25.283Z,1.17
2019-03-17T14:32:51.558Z,2.20
2019-03-17T14:35:17.948Z,2.10
2019-03-17T14:38:02.948Z,1.80
2019-03-17T14:40:29.156Z,1.62
2019-03-17T14:42:55.821Z,1.60
2019-03-17T14:45:22.209Z,1.60
2019-03-17T14:47:48.489Z,1.55
2019-03-17T14:50:22.148Z,0.78
2019-03-17T14:52:48.365Z,0.50
2019-03-17T14:55:14.667Z,0.60
2019-03-17T14:57:40.858Z,1.60
2019-03-17T15:00:10.563Z,1.55
2019-03-17T15:02:52.207Z,1.55
2019-03-17T15:05:18.411Z,1.35
2019-03-17T15:07:44.618Z,1.60
2019-03-17T15:10:13.811Z,1.35
2019-03-17T15:12:40.297Z,0.60
2019-03-17T15:15:09.917Z,0.78
2019-03-17T15:17:36.143Z,0.70
2019-03-17T15:20:05.202Z,0.85
2019-03-17T15:22:31.403Z,0.72
2019-03-17T15:24:57.612Z,0.80
2019-03-17T15:27:23.865Z,0.60
2019-03-17T15:29:50.150Z,0.90
2019-03-17T15:32:16.386Z,0.53
2019-03-17T15:34:42.650Z,0.70
2019-03-17T15:37:08.867Z,1.10
2019-03-17T15:39:35.090Z,0.50
2019-03-17T15:42:03.930Z,0.93
2019-03-17T15:44:48.680Z,0.90
2019-03-17T15:47:15.095Z,0.97
2019-03-17T15:49:41.298Z,0.57
2019-03-17T15:52:07.737Z,0.80
2019-03-17T15:54:46.278Z,0.80
2019-03-17T15:57:12.630Z,0.73
2019-03-17T15:59:38.860Z,0.60
2019-03-17T16:02:07.882Z,0.43
2019-03-17T16:04:34.080Z,1.10
2019-03-17T16:07:00.333Z,0.90
2019-03-17T16:09:28.622Z,0.70
2019-03-17T16:11:55.006Z,0.60
2019-03-17T16:14:39.971Z,0.40
2019-03-17T16:17:06.510Z,1.10
2019-03-17T16:19:35.314Z,1.00
2019-03-17T16:22:01.623Z,0.80
2019-03-17T16:24:27.830Z,0.70
2019-03-17T16:26:54.040Z,0.60
2019-03-17T16:29:20.236Z,0.90
2019-03-17T16:31:46.452Z,0.70
2019-03-17T16:34:12.792Z,0.60
2019-03-17T16:36:39.033Z,0.50
2019-03-17T16:39:06.105Z,0.90
2019-03-17T16:41:42.924Z,0.50
2019-03-17T16:44:00.433Z,0.77
2019-03-17T16:46:26.641Z,0.57
2019-03-17T16:48:52.840Z,1.00
2019-03-17T16:51:19.144Z,0.53
2019-03-17T16:53:45.545Z,1.03
2019-03-17T16:56:30.218Z,0.53
2019-03-17T16:58:56.532Z,0.53
2019-03-17T17:01:22.728Z,0.60
2019-03-17T17:03:48.918Z,0.63
2019-03-17T17:06:33.926Z,0.83
2019-03-17T17:09:00.184Z,0.73
2019-03-17T17:11:26.410Z,0.60
2019-03-17T17:13:52.635Z,0.60
2019-03-17T17:16:24.899Z,0.60
2019-03-17T17:18:51.144Z,0.97
2019-03-17T17:21:17.478Z,0.60
2019-03-17T17:23:43.689Z,1.47
2019-03-17T17:26:10.105Z,0.60
2019-03-17T17:28:36.405Z,0.50
2019-03-17T17:31:02.764Z,0.63
2019-03-17T17:33:47.999Z,0.60
2019-03-17T17:36:17.117Z,0.70
2019-03-17T17:38:43.310Z,0.60
2019-03-17T17:41:11.253Z,2.03
2019-03-17T17:43:52.725Z,0.97
2019-03-17T17:46:18.948Z,0.87
2019-03-17T17:48:45.186Z,1.00
2019-03-17T17:51:11.386Z,0.83
2019-03-17T17:53:37.648Z,0.97
2019-03-17T17:56:22.080Z,1.10
2019-03-17T17:58:48.309Z,0.90
2019-03-17T18:01:14.494Z,1.00
2019-03-17T18:03:51.187Z,0.70
2019-03-17T18:06:08.865Z,0.70
2019-03-17T18:08:37.858Z,0.70
2019-03-17T18:11:04.057Z,0.60
2019-03-17T18:13:30.290Z,1.03
